sensor_id;sensor_type;location;lat;lon;timestamp;pressure;altitude;pressure_sealevel;temperature;humidity
12664;BME280;6396;58.490;15.528;2023-04-01T00:28:07;99368.75;;;-7.12;100.00
12664;BME280;6396;58.490;15.528;2023-04-01T00:30:35;99720.25;;;-5.35;100.00
12664;BME280;6396;58.490;15.528;2023-04-01T00:33:02;99430.75;;;-6.56;100.00
12664;BME280;6396;58.490;15.528;2023-04-01T00:35:32;99739.19;;;-5.31;100.00
12664;BME280;6396;58.490;15.528;2023-04-01T00:38:00;99336.50;;;-7.04;100.00
12664;BME280;6396;58.490;15.528;2023-04-01T00:40:31;99434.69;;;-7.06;100.00
12664;BME280;6396;58.490;15.528;2023-04-01T00:42:59;99531.28;;;-6.72;100.00
12664;BME280;6396;58.490;15.528;2023-04-01T00:45:44;99660.72;;;-6.26;100.00
12664;BME280;6396;58.490;15.528;2023-04-01T00:48:14;99687.69;;;-6.09;100.00
12664;BME280;6396;58.490;15.528;2023-04-01T00:50:44;100200.44;;;-2.52;100.00
12664;BME280;6396;58.490;15.528;2023-04-01T00:53:13;99652.19;;;-6.26;100.00
12664;BME280;6396;58.490;15.528;2023-04-01T00:55:43;99377.03;;;-7.90;100.00
12664;BME280;6396;58.490;15.528;2023-04-01T00:58:17;99474.19;;;-7.32;100.00
12664;BME280;6396;58.490;15.528;2023-04-01T01:01:00;100337.50;;;-2.46;100.00
12664;BME280;6396;58.490;15.528;2023-04-01T01:03:28;99750.88;;;-5.81;100.00
12664;BME280;6396;58.490;15.528;2023-04-01T01:06:10;99504.06;;;-7.02;100.00
12664;BME280;6396;58.490;15.528;2023-04-01T01:08:54;99562.94;;;-6.72;100.00
12664;BME280;6396;58.490;15.528;2023-04-01T01:11:33;99419.09;;;-7.82;100.00
12664;BME280;6396;58.490;15.528;2023-04-01T01:14:10;99628.78;;;-6.71;100.00
12664;BME280;6396;58.490;15.528;2023-04-01T01:16:53;99428.50;;;-7.81;100.00
12664;BME280;6396;58.490;15.528;2023-04-01T01:19:56;99487.38;;;-7.50;100.00
12664;BME280;6396;58.490;15.528;2023-04-01T01:22:38;99653.34;;;-6.48;100.00
12664;BME280;6396;58.490;15.528;2023-04-01T01:25:18;99625.84;;;-6.52;100.00
12664;BME280;6396;58.490;15.528;2023-04-01T01:27:58;99697.72;;;-6.19;100.00
12664;BME280;6396;58.490;15.528;2023-04-01T01:30:37;99774.59;;;-5.57;100.00
12664;BME280;6396;58.490;15.528;2023-04-01T01:33:25;100182.06;;;-3.84;100.00
12664;BME280;6396;58.490;15.528;2023-04-01T01:36:04;99465.56;;;-7.68;100.00
12664;BME280;6396;58.490;15.528;2023-04-01T01:38:34;99484.25;;;-7.71;100.00
12664;BME280;6396;58.490;15.528;2023-04-01T01:41:05;99586.25;;;-6.96;100.00
12664;BME280;6396;58.490;15.528;2023-04-01T01:43:38;99453.25;;;-7.80;100.00
12664;BME280;6396;58.490;15.528;2023-04-01T01:46:13;99431.28;;;-7.73;100.00
12664;BME280;6396;58.490;15.528;2023-04-01T01:48:42;99456.56;;;-7.53;100.00
12664;BME280;6396;58.490;15.528;2023-04-01T01:51:23;99734.91;;;-5.68;100.00
12664;BME280;6396;58.490;15.528;2023-04-01T01:53:51;99609.03;;;-6.41;100.00
12664;BME280;6396;58.490;15.528;2023-04-01T01:56:21;100196.22;;;-2.47;100.00
12664;BME280;6396;58.490;15.528;2023-04-01T01:58:56;99431.09;;;-7.14;100.00
12664;BME280;6396;58.490;15.528;2023-04-01T02:01:28;99442.00;;;-7.23;100.00
12664;BME280;6396;58.490;15.528;2023-04-01T02:03:58;99449.06;;;-7.13;100.00
12664;BME280;6396;58.490;15.528;2023-04-01T02:06:31;99640.34;;;-5.44;100.00
12664;BME280;6396;58.490;15.528;2023-04-01T02:09:04;99352.84;;;-7.70;100.00
12664;BME280;6396;58.490;15.528;2023-04-01T02:11:35;99690.06;;;-5.81;100.00
12664;BME280;6396;58.490;15.528;2023-04-01T02:14:10;99479.97;;;-7.07;100.00
12664;BME280;6396;58.490;15.528;2023-04-01T02:16:45;99788.25;;;-5.22;100.00
12664;BME280;6396;58.490;15.528;2023-04-01T02:20:12;99437.16;;;-7.11;100.00
12664;BME280;6396;58.490;15.528;2023-04-01T02:43:12;99574.41;;;-6.91;100.00
12664;BME280;6396;58.490;15.528;2023-04-01T02:45:55;100251.34;;;-2.48;100.00
12664;BME280;6396;58.490;15.528;2023-04-01T02:48:29;99498.53;;;-7.15;100.00
12664;BME280;6396;58.490;15.528;2023-04-01T02:51:11;99527.22;;;-6.97;100.00
12664;BME280;6396;58.490;15.528;2023-04-01T02:53:54;99444.91;;;-7.42;100.00
12664;BME280;6396;58.490;15.528;2023-04-01T02:56:37;100306.47;;;-2.47;100.00
12664;BME280;6396;58.490;15.528;2023-04-01T03:08:58;100224.47;;;-2.57;100.00
12664;BME280;6396;58.490;15.528;2023-04-01T03:12:11;99478.66;;;-7.89;100.00
12664;BME280;6396;58.490;15.528;2023-04-01T03:15:03;100230.56;;;-2.94;100.00
12664;BME280;6396;58.490;15.528;2023-04-01T03:18:00;99533.03;;;-7.37;100.00
12664;BME280;6396;58.490;15.528;2023-04-01T03:21:18;99527.75;;;-7.72;100.00
12664;BME280;6396;58.490;15.528;2023-04-01T04:12:22;99536.78;;;-7.85;100.00
12664;BME280;6396;58.490;15.528;2023-04-01T04:15:05;99796.09;;;-6.20;100.00
12664;BME280;6396;58.490;15.528;2023-04-01T04:17:49;99571.59;;;-7.62;100.00
12664;BME280;6396;58.490;15.528;2023-04-01T04:20:33;99640.34;;;-7.18;100.00
12664;BME280;6396;58.490;15.528;2023-04-01T04:23:27;99492.19;;;-7.93;100.00
12664;BME280;6396;58.490;15.528;2023-04-01T04:26:15;100134.41;;;-4.01;100.00
12664;BME280;6396;58.490;15.528;2023-04-01T04:36:00;100310.66;;;-2.92;100.00
12664;BME280;6396;58.490;15.528;2023-04-01T04:38:47;100388.25;;;-2.86;100.00
12664;BME280;6396;58.490;15.528;2023-04-01T04:41:33;99906.91;;;-5.76;100.00
12664;BME280;6396;58.490;15.528;2023-04-01T04:44:20;99642.03;;;-7.48;100.00
12664;BME280;6396;58.490;15.528;2023-04-01T04:47:49;99578.53;;;-8.16;100.00
12664;BME280;6396;58.490;15.528;2023-04-01T04:50:33;99839.34;;;-6.65;100.00
12664;BME280;6396;58.490;15.528;2023-04-01T06:06:40;100112.50;;;-3.44;100.00
12664;BME280;6396;58.490;15.528;2023-04-01T06:09:13;100388.69;;;-1.88;100.00
12664;BME280;6396;58.490;15.528;2023-04-01T06:11:46;100374.53;;;-2.06;100.00
12664;BME280;6396;58.490;15.528;2023-04-01T06:14:26;100339.34;;;-1.98;100.00
12664;BME280;6396;58.490;15.528;2023-04-01T06:17:07;100256.56;;;-2.43;100.00
12664;BME280;6396;58.490;15.528;2023-04-01T06:19:44;99952.38;;;-4.35;100.00
12664;BME280;6396;58.490;15.528;2023-04-01T06:22:51;100106.16;;;-3.18;100.00
12664;BME280;6396;58.490;15.528;2023-04-01T06:29:23;99656.56;;;-5.87;100.00
12664;BME280;6396;58.490;15.528;2023-04-01T06:32:09;99929.22;;;-3.95;100.00
12664;BME280;6396;58.490;15.528;2023-04-01T06:35:11;100408.81;;;-0.75;100.00
12664;BME280;6396;58.490;15.528;2023-04-01T06:38:01;100405.50;;;-0.05;100.00
12664;BME280;6396;58.490;15.528;2023-04-01T06:40:52;100344.75;;;-0.22;100.00
12664;BME280;6396;58.490;15.528;2023-04-01T06:43:25;100407.53;;;1.01;100.00
12664;BME280;6396;58.490;15.528;2023-04-01T06:46:04;100298.81;;;1.79;100.00
12664;BME280;6396;58.490;15.528;2023-04-01T06:48:51;100368.41;;;3.73;100.00
12664;BME280;6396;58.490;15.528;2023-04-01T06:51:25;100367.72;;;5.03;100.00
12664;BME280;6396;58.490;15.528;2023-04-01T06:54:01;100200.19;;;5.13;100.00
12664;BME280;6396;58.490;15.528;2023-04-01T06:56:32;100231.06;;;6.24;100.00
12664;BME280;6396;58.490;15.528;2023-04-01T06:59:01;100445.03;;;8.04;100.00
12664;BME280;6396;58.490;15.528;2023-04-01T07:01:47;100349.63;;;7.96;72.47
12664;BME280;6396;58.490;15.528;2023-04-01T07:04:19;100382.13;;;9.14;100.00
12664;BME280;6396;58.490;15.528;2023-04-01T07:06:55;100065.16;;;7.48;85.47
12664;BME280;6396;58.490;15.528;2023-04-01T07:09:39;100390.81;;;10.49;83.42
12664;BME280;6396;58.490;15.528;2023-04-01T07:12:15;99658.47;;;6.00;72.24
12664;BME280;6396;58.490;15.528;2023-04-01T07:14:59;99613.63;;;6.49;74.34
12664;BME280;6396;58.490;15.528;2023-04-01T07:17:31;99958.34;;;8.47;76.42
12664;BME280;6396;58.490;15.528;2023-04-01T07:20:03;100452.53;;;11.31;62.95
12664;BME280;6396;58.490;15.528;2023-04-01T07:22:42;99973.47;;;9.00;50.74
12664;BME280;6396;58.490;15.528;2023-04-01T07:25:14;100407.59;;;11.57;59.64
12664;BME280;6396;58.490;15.528;2023-04-01T07:27:43;99992.19;;;9.19;71.13
12664;BME280;6396;58.490;15.528;2023-04-01T07:30:14;99874.00;;;8.24;58.91
12664;BME280;6396;58.490;15.528;2023-04-01T07:32:44;99649.81;;;7.89;57.85
12664;BME280;6396;58.490;15.528;2023-04-01T07:35:33;100457.09;;;12.30;57.63
12664;BME280;6396;58.490;15.528;2023-04-01T07:38:17;99950.00;;;9.74;55.72
12664;BME280;6396;58.490;15.528;2023-04-01T07:41:15;99760.69;;;8.02;50.14
12664;BME280;6396;58.490;15.528;2023-04-01T07:44:08;99554.31;;;7.89;55.97
12664;BME280;6396;58.490;15.528;2023-04-01T07:46:59;99989.03;;;10.15;42.96
12664;BME280;6396;58.490;15.528;2023-04-01T07:49:40;99973.84;;;10.94;52.33
12664;BME280;6396;58.490;15.528;2023-04-01T07:52:44;100442.34;;;13.61;47.02
12664;BME280;6396;58.490;15.528;2023-04-01T07:55:23;100011.50;;;10.99;50.59
12664;BME280;6396;58.490;15.528;2023-04-01T07:58:03;100055.06;;;11.57;53.08
12664;BME280;6396;58.490;15.528;2023-04-01T08:00:37;100434.78;;;14.13;53.46
12664;BME280;6396;58.490;15.528;2023-04-01T08:03:18;99839.53;;;9.42;49.68
12664;BME280;6396;58.490;15.528;2023-04-01T08:05:54;100374.03;;;13.24;48.91
12664;BME280;6396;58.490;15.528;2023-04-01T08:08:31;100402.59;;;12.94;49.95
12664;BME280;6396;58.490;15.528;2023-04-01T08:11:07;100455.47;;;12.97;48.13
12664;BME280;6396;58.490;15.528;2023-04-01T08:13:46;100487.16;;;12.29;51.88
12664;BME280;6396;58.490;15.528;2023-04-01T08:16:37;99750.66;;;8.15;50.51
12664;BME280;6396;58.490;15.528;2023-04-01T08:19:16;99995.31;;;9.85;50.09
12664;BME280;6396;58.490;15.528;2023-04-01T08:21:51;99788.19;;;8.49;55.70
12664;BME280;6396;58.490;15.528;2023-04-01T08:24:25;100215.16;;;11.17;51.56
12664;BME280;6396;58.490;15.528;2023-04-01T08:26:57;100507.19;;;12.84;55.35
12664;BME280;6396;58.490;15.528;2023-04-01T08:29:33;100078.97;;;10.09;50.61
12664;BME280;6396;58.490;15.528;2023-04-01T08:32:07;100496.75;;;12.57;55.09
12664;BME280;6396;58.490;15.528;2023-04-01T08:34:38;100306.25;;;11.57;50.43
12664;BME280;6396;58.490;15.528;2023-04-01T08:37:28;100488.63;;;12.38;49.48
12664;BME280;6396;58.490;15.528;2023-04-01T08:40:30;100441.66;;;11.94;47.35
12664;BME280;6396;58.490;15.528;2023-04-01T08:43:20;99775.53;;;7.42;54.20
12664;BME280;6396;58.490;15.528;2023-04-01T08:52:50;100485.31;;;11.53;48.66
12664;BME280;6396;58.490;15.528;2023-04-01T09:06:21;100510.59;;;11.89;51.84
12664;BME280;6396;58.490;15.528;2023-04-01T09:12:23;100522.75;;;11.40;54.19
12664;BME280;6396;58.490;15.528;2023-04-01T09:21:59;100534.03;;;11.17;52.40
12664;BME280;6396;58.490;15.528;2023-04-01T09:25:06;100534.88;;;11.47;53.30
12664;BME280;6396;58.490;15.528;2023-04-01T09:27:57;100524.63;;;11.64;59.29
12664;BME280;6396;58.490;15.528;2023-04-01T09:31:04;99707.44;;;6.70;53.35
12664;BME280;6396;58.490;15.528;2023-04-01T09:41:07;99862.75;;;6.86;55.48
12664;BME280;6396;58.490;15.528;2023-04-01T09:44:03;100574.19;;;11.30;53.58
12664;BME280;6396;58.490;15.528;2023-04-01T09:46:51;99773.63;;;6.81;51.88
12664;BME280;6396;58.490;15.528;2023-04-01T09:49:37;100350.97;;;9.97;56.02
12664;BME280;6396;58.490;15.528;2023-04-01T09:52:20;100234.06;;;9.03;58.48
12664;BME280;6396;58.490;15.528;2023-04-01T09:55:19;100025.28;;;7.30;55.85
12664;BME280;6396;58.490;15.528;2023-04-01T10:11:22;100570.53;;;10.05;62.31
12664;BME280;6396;58.490;15.528;2023-04-01T10:17:12;100463.63;;;8.82;55.35
12664;BME280;6396;58.490;15.528;2023-04-01T10:19:58;100575.94;;;9.64;63.14
12664;BME280;6396;58.490;15.528;2023-04-01T10:25:39;100582.59;;;9.42;75.83
12664;BME280;6396;58.490;15.528;2023-04-01T10:28:28;100521.09;;;9.43;75.33
12664;BME280;6396;58.490;15.528;2023-04-01T10:34:59;100452.56;;;9.43;68.21
12664;BME280;6396;58.490;15.528;2023-04-01T10:37:56;100599.91;;;9.91;70.70
12664;BME280;6396;58.490;15.528;2023-04-01T11:19:22;100487.72;;;9.03;66.66
12664;BME280;6396;58.490;15.528;2023-04-01T11:22:36;100624.44;;;9.95;67.78
12664;BME280;6396;58.490;15.528;2023-04-01T11:25:29;100618.81;;;10.10;72.14
12664;BME280;6396;58.490;15.528;2023-04-01T11:28:23;100638.03;;;10.15;67.36
12664;BME280;6396;58.490;15.528;2023-04-01T11:31:04;100188.03;;;7.74;91.16
12664;BME280;6396;58.490;15.528;2023-04-01T11:33:42;100540.97;;;9.92;90.13
12664;BME280;6396;58.490;15.528;2023-04-01T11:36:21;100629.56;;;10.38;88.07
12664;BME280;6396;58.490;15.528;2023-04-01T11:39:03;100362.53;;;8.89;86.37
12664;BME280;6396;58.490;15.528;2023-04-01T11:41:39;100454.69;;;9.29;70.41
12664;BME280;6396;58.490;15.528;2023-04-01T11:44:16;100688.56;;;10.35;65.38
12664;BME280;6396;58.490;15.528;2023-04-01T11:47:23;99916.25;;;5.43;70.91
12664;BME280;6396;58.490;15.528;2023-04-01T11:50:31;100710.94;;;10.19;100.00
12664;BME280;6396;58.490;15.528;2023-04-01T11:57:39;100141.06;;;6.75;100.00
12664;BME280;6396;58.490;15.528;2023-04-01T12:17:36;100739.47;;;9.59;100.00
12664;BME280;6396;58.490;15.528;2023-04-01T12:20:42;99845.34;;;3.86;100.00
12664;BME280;6396;58.490;15.528;2023-04-01T12:37:20;100248.94;;;5.22;100.00
12664;BME280;6396;58.490;15.528;2023-04-01T12:40:31;100462.00;;;6.72;100.00
12664;BME280;6396;58.490;15.528;2023-04-01T12:47:09;100343.22;;;5.99;100.00
